Time;durP1;ratioP1;P1;durP2;ratioP2;P2;SDS_P1;SDS_P2;PMS_P1;PMS_P2;Temp;Humidity;BMP_temperature;BMP_pressure;BME280_temperature;BME280_humidity;BME280_pressure;Samples;Min_cycle;Max_cycle;Signal;HPM_P1;HPM_P2
2023/02/20 00:02:22;;;;;;;;;37.75;30.00;;;;;8.49;100.00;102737.50;5041204;28;64657;-78
2023/02/20 00:04:47;;;;;;;;;43.75;30.25;;;;;8.51;100.00;102752.22;5040717;28;65596;-78
2023/02/20 00:07:13;;;;;;;;;47.25;30.75;;;;;8.41;100.00;102731.28;5040763;28;62956;-78
2023/02/20 00:09:38;;;;;;;;;38.25;30.25;;;;;8.46;100.00;102740.91;5041615;28;45562;-78
2023/02/20 00:12:03;;;;;;;;;37.75;31.25;;;;;8.46;100.00;102745.22;5037770;28;61522;-78
2023/02/20 00:14:29;;;;;;;;;31.00;26.50;;;;;8.41;100.00;102736.47;5038077;28;45595;-78
2023/02/20 00:16:54;;;;;;;;;31.00;27.50;;;;;8.41;100.00;102742.53;5020385;28;45444;-78
2023/02/20 00:19:20;;;;;;;;;38.00;28.50;;;;;8.35;100.00;102724.31;5038069;28;45352;-78
2023/02/20 00:21:46;;;;;;;;;41.50;30.25;;;;;8.37;100.00;102729.50;5038409;28;45463;-78
2023/02/20 00:24:12;;;;;;;;;38.75;31.75;;;;;8.37;100.00;102739.91;5038000;28;45388;-79
2023/02/20 00:26:38;;;;;;;;;31.75;24.00;;;;;8.33;100.00;102726.00;5020415;28;45382;-79
2023/02/20 00:29:03;;;;;;;;;42.00;30.50;;;;;8.31;100.00;102715.59;5019776;28;63204;-79
2023/02/20 00:31:28;;;;;;;;;34.50;29.50;;;;;8.27;100.00;102708.66;5036813;28;66325;-79
2023/02/20 00:33:53;;;;;;;;;35.50;28.00;;;;;8.31;100.00;102719.94;5037108;28;67433;-78
2023/02/20 00:36:20;;;;;;;;;40.00;29.50;;;;;8.32;100.00;102719.97;5037109;28;69148;-79
2023/02/20 00:38:45;;;;;;;;;34.25;29.25;;;;;8.34;100.00;102723.44;5052533;28;45484;-78
2023/02/20 00:41:13;;;;;;;;;48.00;30.25;;;;;8.33;100.00;102723.41;5023376;28;45323;-79
2023/02/20 00:43:39;;;;;;;;;29.50;24.25;;;;;8.36;100.00;102722.56;5037448;28;47185;-79
2023/02/20 00:46:04;;;;;;;;;31.50;25.50;;;;;8.37;100.00;102725.19;5037938;28;45687;-79
2023/02/20 00:48:30;;;;;;;;;42.25;30.50;;;;;8.41;100.00;102723.50;5037356;28;58929;-79
2023/02/20 00:50:55;;;;;;;;;41.25;28.00;;;;;8.37;100.00;102709.63;5037595;28;56189;-78
2023/02/20 00:53:20;;;;;;;;;21.75;19.25;;;;;8.40;100.00;102721.78;5037126;28;64103;-79
2023/02/20 00:55:46;;;;;;;;;43.00;28.25;;;;;8.27;100.00;102700.88;5036986;28;65495;-79
2023/02/20 00:58:11;;;;;;;;;40.50;30.25;;;;;8.35;100.00;102713.91;5036962;28;65116;-78
2023/02/20 01:00:36;;;;;;;;;28.50;16.75;;;;;8.31;100.00;102710.41;5037159;28;49074;-79
2023/02/20 01:03:02;;;;;;;;;39.75;25.00;;;;;8.36;100.00;102718.28;5037281;28;45355;-78
2023/02/20 01:05:27;;;;;;;;;39.25;25.25;;;;;8.36;100.00;102704.41;5036784;28;56237;-79
2023/02/20 01:07:53;;;;;;;;;38.25;30.50;;;;;8.34;100.00;102709.59;5037781;28;45336;-79
2023/02/20 01:10:18;;;;;;;;;37.00;26.25;;;;;8.33;100.00;102705.25;5037446;28;45559;-79
2023/02/20 01:12:44;;;;;;;;;38.00;29.75;;;;;8.30;100.00;102702.59;5036520;28;69930;-78
2023/02/20 01:15:12;;;;;;;;;29.75;25.25;;;;;8.32;100.00;102714.78;5037035;28;45364;-79
2023/02/20 01:17:37;;;;;;;;;39.50;28.75;;;;;8.30;100.00;102715.59;5019842;28;45368;-79
2023/02/20 01:20:03;;;;;;;;;39.75;28.50;;;;;8.18;100.00;102698.16;5036579;28;65185;-79
2023/02/20 01:22:28;;;;;;;;;31.25;25.00;;;;;8.20;100.00;102700.78;5037058;28;46720;-79
2023/02/20 01:24:53;;;;;;;;;10.25;2.50;;;;;8.23;100.00;102708.59;5036637;28;67191;-79
2023/02/20 01:27:19;;;;;;;;;23.00;21.00;;;;;8.21;100.00;102702.50;5036139;28;59873;-79
2023/02/20 01:29:44;;;;;;;;;20.50;13.50;;;;;8.21;100.00;102699.91;5036436;28;65689;-79
2023/02/20 01:32:11;;;;;;;;;28.00;25.00;;;;;8.20;100.00;102700.78;5036433;28;69477;-79
2023/02/20 01:34:36;;;;;;;;;29.50;27.25;;;;;8.13;100.00;102690.34;5037158;28;45305;-79
2023/02/20 01:37:01;;;;;;;;;27.50;25.50;;;;;8.11;100.00;102692.00;5036954;28;45866;-79
2023/02/20 01:39:27;;;;;;;;;39.75;29.75;;;;;8.02;100.00;102684.09;5036612;28;66225;-79
2023/02/20 01:41:59;;;;;;;;;22.75;21.00;;;;;8.07;100.00;102702.34;5018473;28;47102;-79
2023/02/20 01:44:31;;;;;;;;;31.00;22.50;;;;;8.04;100.00;102705.78;5018833;28;45424;-79
2023/02/20 01:46:58;;;;;;;;;38.00;24.75;;;;;8.02;100.00;102710.03;5037362;28;45476;-79
2023/02/20 01:49:31;;;;;;;;;32.50;23.00;;;;;8.02;100.00;102717.81;5036858;28;45345;-79
2023/02/20 01:52:12;;;;;;;;;30.00;20.00;;;;;7.99;100.00;102716.94;5037014;28;46645;-79
2023/02/20 01:54:39;;;;;;;;;23.00;18.25;;;;;7.97;100.00;102724.69;5019152;28;46043;-79
2023/02/20 01:57:08;;;;;;;;;24.50;22.00;;;;;7.97;100.00;102729.88;5036338;28;45450;-79
2023/02/20 01:59:36;;;;;;;;;30.25;26.50;;;;;7.93;100.00;102726.38;5018860;28;45200;-79
2023/02/20 02:02:04;;;;;;;;;18.25;12.00;;;;;7.93;100.00;102730.66;5036774;28;45961;-80
2023/02/20 02:04:29;;;;;;;;;32.50;24.25;;;;;7.83;100.00;102719.31;5018577;28;45925;-79
2023/02/20 02:06:55;;;;;;;;;35.00;24.75;;;;;7.82;100.00;102730.53;5036759;28;45451;-79
2023/02/20 02:09:49;;;;;;;;;27.75;23.50;;;;;7.80;100.00;102724.47;5035512;28;67649;-80
2023/02/20 02:12:15;;;;;;;;;33.75;25.25;;;;;7.73;100.00;102726.09;5035952;28;45414;-79
2023/02/20 02:14:40;;;;;;;;;39.00;27.00;;;;;7.68;100.00;102726.88;5035081;28;68984;-79
2023/02/20 02:17:17;;;;;;;;;35.50;28.25;;;;;7.65;100.00;102722.53;5036629;28;45609;-79
2023/02/20 02:19:52;;;;;;;;;35.00;25.75;;;;;7.63;100.00;102723.31;5036267;28;45177;-79
2023/02/20 02:22:49;;;;;;;;;40.50;29.50;;;;;7.57;100.00;102709.41;5036145;28;45398;-79
2023/02/20 02:25:33;;;;;;;;;42.50;28.50;;;;;7.52;100.00;102698.13;4938574;28;45307;-79
2023/02/20 02:28:40;;;;;;;;;33.75;23.50;;;;;7.53;100.00;102694.66;4948958;28;45326;-78
2023/02/20 02:31:30;;;;;;;;;29.25;23.25;;;;;7.52;100.00;102697.25;4899620;29;45430;-79
2023/02/20 02:34:33;;;;;;;;;29.50;27.00;;;;;7.52;100.00;102694.66;4897044;29;46595;-79
2023/02/20 02:37:18;;;;;;;;;28.00;24.75;;;;;7.47;100.00;102684.22;4898189;29;46135;-79
2023/02/20 02:39:55;;;;;;;;;31.75;23.50;;;;;7.44;100.00;102684.16;4897234;29;45509;-79
2023/02/20 02:42:44;;;;;;;;;30.75;23.25;;;;;7.45;100.00;102687.66;4897416;29;45458;-78
2023/02/20 02:45:27;;;;;;;;;22.00;19.25;;;;;7.46;100.00;102679.88;4897796;29;46565;-78
2023/02/20 02:47:59;;;;;;;;;32.75;23.50;;;;;7.46;100.00;102671.25;4897261;29;45863;-78
2023/02/20 02:50:44;;;;;;;;;23.25;18.00;;;;;7.47;100.00;102667.81;4909423;28;45416;-79
2023/02/20 02:53:10;;;;;;;;;28.00;21.00;;;;;7.46;100.00;102669.50;4900660;28;45532;-78
2023/02/20 02:55:35;;;;;;;;;23.50;19.00;;;;;7.45;100.00;102660.00;4914912;28;72545;-79
2023/02/20 02:58:03;;;;;;;;;35.50;23.25;;;;;7.48;100.00;102654.00;4915390;28;67569;-79
2023/02/20 03:00:33;;;;;;;;;25.00;20.25;;;;;7.43;100.00;102650.47;4916490;28;45305;-79
2023/02/20 03:03:09;;;;;;;;;26.00;22.50;;;;;7.45;100.00;102648.78;4935105;28;45516;-79
2023/02/20 03:05:59;;;;;;;;;26.25;19.50;;;;;7.45;100.00;102656.56;4938327;28;46377;-79
2023/02/20 03:08:38;;;;;;;;;25.50;19.75;;;;;7.44;100.00;102653.06;4982967;28;45750;-78
2023/02/20 03:11:07;;;;;;;;;19.75;18.00;;;;;7.43;100.00;102651.34;4998341;28;45480;-79
2023/02/20 03:16:28;;;;;;;;;31.00;23.00;;;;;7.40;100.00;102643.53;5014382;28;45784;-79
2023/02/20 03:18:57;;;;;;;;;27.50;23.00;;;;;7.39;100.00;102639.16;4997765;28;45256;-79
2023/02/20 03:21:24;;;;;;;;;26.50;19.00;;;;;7.28;100.00;102620.91;5014790;28;45428;-78
2023/02/20 03:23:56;;;;;;;;;22.25;16.50;;;;;7.28;100.00;102628.69;5014545;28;45383;-78
2023/02/20 03:26:28;;;;;;;;;25.25;18.75;;;;;7.22;100.00;102623.38;5014206;28;45552;-79
2023/02/20 03:29:10;;;;;;;;;21.75;18.00;;;;;7.21;100.00;102620.78;5014437;28;45886;-78
2023/02/20 03:31:44;;;;;;;;;24.00;19.00;;;;;7.18;100.00;102625.06;5016809;28;45454;-78
2023/02/20 03:45:40;;;;;;;;;36.25;21.00;;;;;7.00;100.00;102604.03;5020970;28;45320;-79
2023/02/20 03:48:28;;;;;;;;;24.25;19.75;;;;;7.02;100.00;102610.16;5038190;28;46568;-79
2023/02/20 03:51:12;;;;;;;;;27.00;19.50;;;;;6.99;100.00;102612.69;5038765;28;45241;-79
2023/02/20 03:53:39;;;;;;;;;26.50;22.00;;;;;6.93;100.00;102603.09;5038065;28;45497;-80
2023/02/20 03:56:09;;;;;;;;;31.00;16.00;;;;;6.97;100.00;102612.66;5020938;28;45307;-79
2023/02/20 03:58:39;;;;;;;;;21.25;16.00;;;;;6.94;100.00;102611.72;5038877;28;46449;-79
2023/02/20 04:01:07;;;;;;;;;21.75;17.50;;;;;6.93;100.00;102612.59;5021182;28;45723;-79
2023/02/20 04:03:38;;;;;;;;;29.50;20.75;;;;;6.91;100.00;102611.66;5020958;28;45373;-79
2023/02/20 04:06:06;;;;;;;;;26.25;18.00;;;;;6.77;100.00;102589.03;5020427;28;45351;-79
2023/02/20 04:08:36;;;;;;;;;22.25;18.00;;;;;6.82;100.00;102602.06;5020486;28;46805;-79
2023/02/20 04:11:10;;;;;;;;;21.25;17.00;;;;;6.81;100.00;102605.47;5020694;28;45266;-78
2023/02/20 04:13:37;;;;;;;;;30.00;19.50;;;;;6.79;100.00;102599.41;5022778;28;45409;-78
2023/02/20 04:16:03;;;;;;;;;21.25;18.75;;;;;6.72;100.00;102593.28;5026495;28;45346;-79
2023/02/20 04:18:29;;;;;;;;;27.50;20.25;;;;;6.73;100.00;102592.41;5038564;28;46410;-79
2023/02/20 04:20:55;;;;;;;;;24.75;18.50;;;;;6.71;100.00;102591.50;5020269;28;45865;-78
2023/02/20 04:23:23;;;;;;;;;20.50;19.25;;;;;6.64;100.00;102584.50;5020862;28;45333;-79
2023/02/20 04:26:01;;;;;;;;;20.50;18.00;;;;;6.67;100.00;102594.91;5020549;28;45450;-78
2023/02/20 04:28:27;;;;;;;;;19.00;18.25;;;;;6.63;100.00;102593.13;5020568;28;46347;-79
2023/02/20 04:30:52;;;;;;;;;26.75;15.25;;;;;6.63;100.00;102594.81;5019461;28;62616;-79
2023/02/20 04:33:19;;;;;;;;;21.50;15.50;;;;;6.59;100.00;102594.78;5037942;28;45332;-79
2023/02/20 04:35:44;;;;;;;;;18.75;14.75;;;;;6.55;100.00;102592.97;5020208;28;45317;-80
2023/02/20 04:38:10;;;;;;;;;27.75;21.25;;;;;6.56;100.00;102593.84;5037604;28;55337;-79
2023/02/20 04:40:35;;;;;;;;;21.25;15.75;;;;;6.54;100.00;102603.31;5020478;28;45245;-79
2023/02/20 04:43:01;;;;;;;;;20.25;16.75;;;;;6.49;100.00;102592.00;5038410;28;45261;-79
2023/02/20 04:45:26;;;;;;;;;30.25;16.00;;;;;6.51;100.00;102590.31;5037497;28;64226;-79
2023/02/20 04:47:52;;;;;;;;;22.75;18.50;;;;;6.47;100.00;102585.94;5037758;28;45595;-79
2023/02/20 04:50:23;;;;;;;;;20.75;15.50;;;;;6.44;100.00;102581.56;5037688;28;45386;-79
2023/02/20 04:52:49;;;;;;;;;26.75;17.00;;;;;6.42;100.00;102579.78;5037684;28;45377;-79
2023/02/20 04:55:15;;;;;;;;;26.75;18.00;;;;;6.47;100.00;102597.13;5037304;28;54660;-79
2023/02/20 04:57:40;;;;;;;;;22.75;16.50;;;;;6.48;100.00;102600.59;5036745;28;45438;-79
2023/02/20 05:00:07;;;;;;;;;26.00;18.00;;;;;6.47;100.00;102597.13;5037357;28;60108;-81
2023/02/20 05:02:33;;;;;;;;;18.25;13.00;;;;;6.46;100.00;102597.09;5037445;28;45420;-79
2023/02/20 05:04:58;;;;;;;;;13.50;9.50;;;;;6.43;100.00;102591.91;5037742;28;45443;-79
2023/02/20 05:07:24;;;;;;;;;15.75;15.00;;;;;6.43;100.00;102587.59;5036849;28;66015;-79
2023/02/20 05:09:49;;;;;;;;;23.25;15.00;;;;;6.43;100.00;102586.72;5036872;28;63575;-79
2023/02/20 05:12:14;;;;;;;;;19.75;17.75;;;;;6.39;100.00;102589.25;5036763;28;63079;-79
2023/02/20 05:14:40;;;;;;;;;20.75;17.50;;;;;6.36;100.00;102594.34;5037972;28;45475;-79
2023/02/20 05:17:05;;;;;;;;;18.00;15.00;;;;;6.31;100.00;102583.03;5037123;28;46417;-79
2023/02/20 05:19:30;;;;;;;;;23.25;15.25;;;;;6.28;100.00;102570.06;5018735;28;52865;-79
2023/02/20 05:24:43;;;;;;;;;19.75;14.00;;;;;6.29;100.00;102576.97;5037482;28;45435;-79
2023/02/20 05:27:09;;;;;;;;;21.25;16.00;;;;;6.28;100.00;102574.34;5037264;28;45336;-79
2023/02/20 05:29:34;;;;;;;;;25.25;16.50;;;;;6.18;100.00;102560.41;5036846;28;45356;-79
2023/02/20 05:31:59;;;;;;;;;20.75;14.75;;;;;6.28;100.00;102564.00;5037098;28;45394;-80
2023/02/20 05:34:25;;;;;;;;;18.00;13.50;;;;;6.27;100.00;102568.31;5036049;28;62650;-80
2023/02/20 05:36:50;;;;;;;;;14.00;14.00;;;;;6.27;100.00;102563.16;5036651;28;46130;-79
2023/02/20 05:39:16;;;;;;;;;21.25;13.25;;;;;6.30;100.00;102563.22;5037125;28;45232;-80
2023/02/20 05:41:41;;;;;;;;;22.25;15.50;;;;;6.31;100.00;102572.69;5037189;28;45300;-80
2023/02/20 05:44:07;;;;;;;;;14.25;12.50;;;;;6.29;100.00;102556.28;5036207;28;61175;-80
2023/02/20 05:46:38;;;;;;;;;21.50;15.00;;;;;6.33;100.00;102557.22;5036890;28;45497;-80
2023/02/20 05:49:05;;;;;;;;;21.25;13.50;;;;;6.36;100.00;102559.88;5036776;28;45832;-80
2023/02/20 05:51:30;;;;;;;;;23.75;15.00;;;;;6.35;100.00;102560.69;5036893;28;45296;-79
2023/02/20 05:53:56;;;;;;;;;21.75;16.25;;;;;6.38;100.00;102565.94;5036157;28;68508;-79
2023/02/20 05:56:21;;;;;;;;;25.50;18.50;;;;;6.34;100.00;102566.72;5019070;28;47159;-79
2023/02/20 05:58:47;;;;;;;;;20.25;18.75;;;;;6.34;100.00;102562.41;5036547;28;45447;-79
2023/02/20 06:01:17;;;;;;;;;24.75;17.75;;;;;6.38;100.00;102568.53;5019452;28;45415;-80
2023/02/20 06:03:42;;;;;;;;;19.25;15.00;;;;;6.37;100.00;102572.81;5047076;28;44821;-79
2023/02/20 06:06:08;;;;;;;;;18.25;15.75;;;;;6.37;100.00;102559.91;5037214;28;68357;-79
2023/02/20 06:08:33;;;;;;;;;21.25;16.75;;;;;6.41;100.00;102568.59;5036099;28;65359;-79
2023/02/20 06:10:58;;;;;;;;;24.75;16.25;;;;;6.37;100.00;102564.19;5035251;28;65228;-80
2023/02/20 06:13:24;;;;;;;;;17.50;14.25;;;;;6.43;100.00;102576.38;5035766;28;62584;-79
2023/02/20 06:15:49;;;;;;;;;22.00;15.75;;;;;6.40;100.00;102570.28;5035764;28;65150;-79
2023/02/20 06:18:14;;;;;;;;;26.75;18.75;;;;;6.42;100.00;102566.84;5036064;28;45262;-79
2023/02/20 06:20:40;;;;;;;;;21.00;19.00;;;;;6.45;100.00;102566.91;5035798;28;62245;-79
2023/02/20 06:23:05;;;;;;;;;29.50;20.25;;;;;6.39;100.00;102553.03;5017698;28;64939;-78
2023/02/20 06:25:30;;;;;;;;;21.00;18.00;;;;;6.48;100.00;102567.84;5036601;28;47200;-79
2023/02/20 06:27:56;;;;;;;;;22.50;16.00;;;;;6.47;100.00;102563.50;5036328;28;65004;-79
2023/02/20 06:30:21;;;;;;;;;27.00;19.25;;;;;6.53;100.00;102567.91;5035984;28;64765;-79
2023/02/20 06:32:46;;;;;;;;;33.75;20.00;;;;;6.50;100.00;102563.56;5035410;28;65982;-79
2023/02/20 06:35:12;;;;;;;;;29.50;24.50;;;;;6.56;100.00;102574.00;5036389;28;66360;-80
2023/02/20 06:37:37;;;;;;;;;26.00;21.50;;;;;6.56;100.00;102570.56;5036758;28;45453;-79
2023/02/20 06:40:04;;;;;;;;;25.25;18.00;;;;;6.57;100.00;102574.88;5035866;28;56008;-80
2023/02/20 06:42:29;;;;;;;;;25.00;17.75;;;;;6.66;100.00;102569.00;5036624;28;45433;-79
2023/02/20 06:44:54;;;;;;;;;22.50;19.25;;;;;6.71;100.00;102581.16;5035584;28;62829;-79
2023/02/20 06:47:20;;;;;;;;;21.25;16.50;;;;;6.69;100.00;102574.22;5035175;28;60294;-79
2023/02/20 06:49:46;;;;;;;;;25.50;16.25;;;;;6.69;100.00;102582.84;5017721;28;67057;-79
2023/02/20 06:52:12;;;;;;;;;24.00;19.00;;;;;6.60;100.00;102569.75;5035766;28;45379;-79
2023/02/20 06:54:39;;;;;;;;;19.50;17.00;;;;;6.57;100.00;102580.06;5035549;28;45361;-79
2023/02/20 06:57:04;;;;;;;;;31.75;18.25;;;;;6.58;100.00;102587.84;5036566;28;45227;-80
2023/02/20 06:59:30;;;;;;;;;23.00;14.00;;;;;6.55;100.00;102581.75;5036008;28;45427;-79
2023/02/20 07:01:55;;;;;;;;;18.00;15.75;;;;;6.55;100.00;102585.19;5035692;28;45446;-79
2023/02/20 07:04:23;;;;;;;;;22.00;18.00;;;;;6.58;100.00;102586.97;5035873;28;45351;-79
2023/02/20 07:06:49;;;;;;;;;24.25;17.00;;;;;6.57;100.00;102580.06;5035751;28;46045;-79
2023/02/20 07:09:14;;;;;;;;;25.50;14.75;;;;;6.57;100.00;102588.72;5035490;28;45355;-79
2023/02/20 07:11:40;;;;;;;;;19.75;16.00;;;;;6.59;100.00;102580.94;5018350;28;45526;-79
2023/02/20 07:14:06;;;;;;;;;26.00;16.00;;;;;6.58;100.00;102577.50;5018661;28;45575;-79
2023/02/20 07:16:31;;;;;;;;;26.75;19.75;;;;;6.66;100.00;102597.47;5017882;28;45407;-79
2023/02/20 07:18:57;;;;;;;;;18.25;17.25;;;;;6.68;100.00;102588.00;5036133;28;45404;-84
2023/02/20 07:21:22;;;;;;;;;28.75;18.00;;;;;6.69;100.00;102582.84;5019661;28;45516;-86
2023/02/20 07:23:48;;;;;;;;;15.75;11.75;;;;;6.70;100.00;102578.53;5038761;28;46717;-83
2023/02/20 07:26:22;;;;;;;;;19.00;15.75;;;;;6.81;100.00;102600.28;5038667;28;45414;-81
2023/02/20 07:28:47;;;;;;;;;17.75;14.50;;;;;6.85;100.00;102606.41;5021910;28;45356;-87
2023/02/20 07:31:13;;;;;;;;;19.25;14.75;;;;;6.88;100.00;102603.88;5021497;28;45480;-84
2023/02/20 07:33:38;;;;;;;;;20.75;12.00;;;;;6.83;100.00;102596.00;5021288;28;45601;-85
2023/02/20 07:36:04;;;;;;;;;15.25;11.75;;;;;6.92;100.00;102616.00;5021155;28;58161;-87
2023/02/20 07:38:29;;;;;;;;;22.25;12.00;;;;;6.87;100.00;102612.47;5021149;28;45239;-86
2023/02/20 07:40:54;;;;;;;;;21.75;15.50;;;;;6.87;100.00;102615.06;5013744;28;45390;-86
2023/02/20 07:43:22;;;;;;;;;16.25;14.00;;;;;6.90;100.00;102615.97;5019141;28;46207;-85
2023/02/20 07:45:57;;;;;;;;;17.75;12.25;;;;;6.98;100.00;102623.88;5005143;28;45805;-85
2023/02/20 07:48:23;;;;;;;;;18.25;13.25;;;;;6.97;100.00;102611.78;5010881;28;45578;-83
2023/02/20 07:50:48;;;;;;;;;22.00;15.25;;;;;7.15;100.00;102622.44;5004981;28;55588;-82
2023/02/20 07:53:16;;;;;;;;;15.00;11.75;;;;;7.23;100.00;102629.47;5035027;28;45583;-84
2023/02/20 07:55:42;;;;;;;;;22.75;14.75;;;;;7.30;100.00;102626.97;5014752;28;45420;-83
2023/02/20 07:58:08;;;;;;;;;20.25;15.75;;;;;7.39;100.00;102625.34;5020211;28;45508;-82
2023/02/20 08:00:33;;;;;;;;;23.50;16.50;;;;;7.38;100.00;102619.31;5058360;28;45288;-85
2023/02/20 08:02:58;;;;;;;;;21.75;12.75;;;;;7.54;100.00;102623.88;5023818;28;47848;-83
2023/02/20 08:05:24;;;;;;;;;17.50;11.50;;;;;7.61;100.00;102631.72;5039839;28;45423;-83
2023/02/20 08:07:53;;;;;;;;;26.25;15.00;;;;;7.65;100.00;102629.22;5040402;28;45412;-84
2023/02/20 08:10:28;;;;;;;;;31.75;21.75;;;;;7.66;100.00;102625.75;5054833;28;45450;-84
2023/02/20 08:12:54;;;;;;;;;34.00;21.00;;;;;7.73;100.00;102630.16;5023628;28;45435;-82
2023/02/20 08:15:20;;;;;;;;;18.50;11.75;;;;;7.75;100.00;102623.28;5023483;28;45462;-83
2023/02/20 08:17:46;;;;;;;;;24.50;13.50;;;;;7.81;100.00;102626.81;5018676;28;45494;-86
2023/02/20 08:20:14;;;;;;;;;23.00;14.75;;;;;7.86;100.00;102631.19;4998262;28;45699;-86
2023/02/20 08:22:49;;;;;;;;;20.50;13.50;;;;;7.85;100.00;102632.03;5000688;28;47294;-86
2023/02/20 08:25:20;;;;;;;;;17.25;13.75;;;;;7.88;100.00;102623.44;4985537;28;45815;-88
2023/02/20 08:27:49;;;;;;;;;15.00;13.00;;;;;7.85;100.00;102619.06;5001023;28;45620;-87
2023/02/20 08:30:26;;;;;;;;;27.50;23.00;;;;;8.06;100.00;102646.13;4984609;28;45480;-87
2023/02/20 08:32:52;;;;;;;;;29.50;21.50;;;;;8.03;100.00;102631.41;4999835;28;47025;-87
2023/02/20 08:35:33;;;;;;;;;30.00;23.25;;;;;8.09;100.00;102630.59;5000297;28;45317;-87
2023/02/20 08:41:24;;;;;;;;;23.25;18.00;;;;;8.18;100.00;102640.22;5008877;28;46135;-87
2023/02/20 08:43:53;;;;;;;;;13.75;12.00;;;;;8.17;100.00;102635.88;5018188;28;45380;-87
2023/02/20 08:46:21;;;;;;;;;17.50;12.50;;;;;8.14;100.00;102635.00;5000535;28;48604;-87
2023/02/20 08:48:50;;;;;;;;;15.00;11.75;;;;;8.09;100.00;102618.50;5018190;28;45360;-88
2023/02/20 08:51:19;;;;;;;;;13.50;12.25;;;;;8.12;100.00;102628.91;5001746;28;45263;-88
2023/02/20 08:53:45;;;;;;;;;27.00;11.25;;;;;7.99;100.00;102613.22;5016808;28;46383;-87
2023/02/20 08:56:11;;;;;;;;;24.00;18.25;;;;;7.94;100.00;102605.34;4999803;28;45387;-88
2023/02/20 08:58:43;;;;;;;;;19.75;18.00;;;;;8.10;100.00;102625.44;5014703;28;45302;-87
2023/02/20 09:01:16;;;;;;;;;27.50;19.75;;;;;8.04;100.00;102602.03;5018667;28;45621;-89
2023/02/20 09:04:14;;;;;;;;;;;;;;;;;;;;;
2023/02/20 09:06:40;;;;;;;;;23.25;19.75;;;;;8.13;100.00;102620.28;4983703;28;73391;-89
2023/02/20 09:09:30;;;;;;;;;;;;;;;;;;;;;
2023/02/20 09:12:30;;;;;;;;;;;;;;;;;;;;;
2023/02/20 09:15:33;;;;;;;;;;;;;;;;;;;;;
2023/02/20 09:18:14;;;;;;;;;19.50;15.00;;;;;8.26;100.00;102635.97;5012562;28;73516;-87
2023/02/20 09:20:48;;;;;;;;;17.75;16.25;;;;;8.11;100.00;102600.34;5029260;28;45506;-90
2023/02/20 09:27:29;;;;;;;;;;;;;;;;;;;;;
2023/02/20 09:29:41;;;;;;;;;;;;;;;;;;;;;
2023/02/20 09:32:07;;;;;;;;;23.50;14.25;;;;;8.58;100.00;102631.16;4958631;28;70135;-91
2023/02/20 09:35:54;;;;;;;;;;;;;;;;;;;;;
2023/02/20 09:38:01;;;;;;;;;19.25;16.75;;;;;8.71;100.00;102609.66;4976982;28;46258;-90
2023/02/20 09:44:02;;;;;;;;;;;;;;;;;;;;;
2023/02/20 09:46:30;;;;;;;;;25.00;21.00;;;;;9.06;100.00;102615.97;4931179;28;69142;-91
2023/02/20 09:49:59;;;;;;;;;;;;;;;;;;;;;
2023/02/20 09:53:19;;;;;;;;;;;;;;;;;;;;;
2023/02/20 09:56:14;;;;;;;;;;;;;;;;;;;;;
2023/02/20 09:59:20;;;;;;;;;13.25;9.75;;;;;9.51;100.00;102619.75;4890976;29;71223;-88
2023/02/20 10:02:24;;;;;;;;;13.00;9.75;;;;;9.56;100.00;102622.38;4887421;29;48323;-89
2023/02/20 10:05:02;;;;;;;;;9.50;6.75;;;;;9.55;100.00;102616.31;4954271;28;45546;-88
2023/02/20 10:08:06;;;;;;;;;36.00;24.00;;;;;9.65;100.00;102627.63;4942880;28;45464;-89
2023/02/20 10:10:57;;;;;;;;;;;;;;;;;;;;;
2023/02/20 10:17:50;;;;;;;;;28.25;21.25;;;;;9.88;100.00;102626.00;4934232;28;45412;-89
2023/02/20 10:20:48;;;;;;;;;23.25;18.00;;;;;9.79;100.00;102638.97;4873513;29;45296;-89
2023/02/20 10:23:52;;;;;;;;;25.25;17.00;;;;;9.72;100.00;102626.78;4861160;29;45388;-90
2023/02/20 10:26:42;;;;;;;;;19.25;16.75;;;;;9.72;100.00;102621.59;4972432;28;48374;-89
2023/02/20 10:29:52;;;;;;;;;;;;;;;;;;;;;
2023/02/20 10:33:21;;;;;;;;;;;;;;;;;;;;;
2023/02/20 10:36:40;;;;;;;;;;;;;;;;;;;;;
2023/02/20 10:39:23;;;;;;;;;25.75;19.75;;;;;9.67;100.00;102625.88;4934193;28;76027;-89
2023/02/20 10:42:19;;;;;;;;;;;;;;;;;;;;;
2023/02/20 10:45:26;;;;;;;;;;;;;;;;;;;;;
2023/02/20 10:48:17;;;;;;;;;34.75;28.75;;;;;9.47;100.00;102605.88;4899113;29;68751;-89
2023/02/20 10:51:38;;;;;;;;;;;;;;;;;;;;;
2023/02/20 10:57:55;;;;;;;;;19.50;14.00;;;;;9.61;100.00;102613.72;4842543;29;45367;-88
2023/02/20 11:04:13;;;;;;;;;15.75;13.25;;;;;9.68;100.00;102604.22;4812506;29;46237;-89
2023/02/20 11:07:31;;;;;;;;;;;;;;;;;;;;;
2023/02/20 11:11:00;;;;;;;;;21.00;13.50;;;;;9.68;100.00;102605.09;4767887;29;68045;-89
2023/02/20 11:17:13;;;;;;;;;;;;;;;;;;;;;
2023/02/20 11:20:11;;;;;;;;;26.00;21.75;;;;;9.83;100.00;102591.28;4771694;29;73968;-89
2023/02/20 11:25:59;;;;;;;;;30.50;23.50;;;;;9.77;100.00;102585.19;4803235;29;46272;-90
2023/02/20 11:28:54;;;;;;;;;;;;;;;;;;;;;
2023/02/20 11:32:04;;;;;;;;;;;;;;;;;;;;;
2023/02/20 11:35:19;;;;;;;;;;;;;;;;;;;;;
2023/02/20 11:38:16;;;;;;;;;22.50;15.00;;;;;10.16;100.00;102568.84;4898034;29;70180;-90
2023/02/20 11:41:25;;;;;;;;;;;;;;;;;;;;;
2023/02/20 11:48:43;;;;;;;;;;;;;;;;;;;;;
2023/02/20 11:57:13;;;;;;;;;;;;;;;;;;;;;
2023/02/20 12:00:26;;;;;;;;;;;;;;;;;;;;;
2023/02/20 12:03:07;;;;;;;;;37.00;28.75;;;;;10.88;100.00;102556.75;4819823;29;71098;-90
2023/02/20 12:05:46;;;;;;;;;26.75;14.25;;;;;10.93;100.00;102555.00;4823934;29;47280;-82
2023/02/20 12:08:28;;;;;;;;;30.50;27.25;;;;;11.06;100.00;102563.69;4841366;29;45896;-83
2023/02/20 12:10:55;;;;;;;;;51.75;42.25;;;;;11.27;100.00;102558.41;4843392;29;45399;-85
2023/02/20 12:13:21;;;;;;;;;23.00;15.50;;;;;11.66;100.00;102540.88;4828394;29;45323;-84
2023/02/20 12:15:56;;;;;;;;;48.50;35.25;;;;;12.23;100.00;102537.13;4827498;29;60696;-86
2023/02/20 12:18:50;;;;;;;;;25.25;16.25;;;;;13.05;100.00;102532.88;4840015;29;45399;-86
2023/02/20 12:21:23;;;;;;;;;17.25;14.75;;;;;13.82;100.00;102524.16;4842293;29;45486;-82
2023/02/20 12:24:04;;;;;;;;;18.25;12.25;;;;;14.66;100.00;102527.22;4850862;28;45543;-84
2023/02/20 12:26:49;;;;;;;;;11.50;9.50;;;;;16.34;100.00;102515.81;4877976;28;47245;-84
2023/02/20 12:29:30;;;;;;;;;31.25;26.25;;;;;18.86;100.00;102506.59;4896508;28;45521;-84
2023/02/20 12:32:28;;;;;;;;;38.25;33.75;;;;;22.31;100.00;102505.16;4912768;28;45532;-84
2023/02/20 12:35:05;;;;;;;;;19.25;16.25;;;;;24.60;97.31;102500.50;4895865;28;45478;-84
2023/02/20 12:37:49;;;;;;;;;16.50;11.00;;;;;24.51;87.07;102498.34;4913170;28;45504;-84
2023/02/20 12:40:50;;;;;;;;;17.50;12.25;;;;;25.05;88.34;102495.94;4975867;28;45838;-86
2023/02/20 12:43:47;;;;;;;;;18.25;16.00;;;;;27.02;84.75;102493.56;4929330;28;45659;-85
2023/02/20 12:46:27;;;;;;;;;13.75;9.50;;;;;28.79;78.80;102495.59;4935044;28;45687;-85
2023/02/20 12:49:08;;;;;;;;;16.50;16.50;;;;;29.55;69.74;102490.41;4953222;28;45436;-84
2023/02/20 12:51:50;;;;;;;;;23.25;21.75;;;;;29.94;65.51;102492.59;4975761;28;45854;-85
2023/02/20 12:54:24;;;;;;;;;21.00;19.00;;;;;30.38;61.32;102488.81;4956325;28;45513;-85
2023/02/20 12:57:21;;;;;;;;;12.50;10.50;;;;;31.05;61.40;102481.22;4955862;28;45431;-85
2023/02/20 12:59:58;;;;;;;;;15.25;14.00;;;;;31.80;57.55;102476.28;4951617;28;45822;-86
2023/02/20 13:02:34;;;;;;;;;14.75;10.75;;;;;32.11;52.64;102468.03;4939866;28;45465;-87
2023/02/20 13:05:01;;;;;;;;;20.00;15.00;;;;;32.36;52.67;102469.28;4956621;28;45406;-86
2023/02/20 13:07:32;;;;;;;;;16.50;15.00;;;;;32.79;50.24;102467.84;4940376;28;45581;-87
2023/02/20 13:10:29;;;;;;;;;8.25;6.75;;;;;33.29;50.36;102466.59;4923997;28;46987;-85
2023/02/20 13:12:54;;;;;;;;;24.75;20.25;;;;;33.56;45.12;102457.56;4921109;28;45564;-84
2023/02/20 13:15:29;;;;;;;;;8.50;8.50;;;;;33.82;45.90;102452.25;4950791;28;45273;-84